createdAt,value
2023-05-09T00:01:25.170Z,15.80
2023-05-09T00:03:52.096Z,15.70
2023-05-09T00:06:19.848Z,15.70
2023-05-09T00:08:46.830Z,15.60
2023-05-09T00:11:13.929Z,15.60
2023-05-09T00:13:41.931Z,15.60
2023-05-09T00:16:09.436Z,15.50
2023-05-09T00:18:37.562Z,15.50
2023-05-09T00:21:04.676Z,15.50
2023-05-09T00:23:31.535Z,15.50
2023-05-09T00:25:59.182Z,15.50
2023-05-09T00:28:25.982Z,15.50
2023-05-09T00:30:52.950Z,15.50
2023-05-09T00:33:20.928Z,15.40
2023-05-09T00:35:47.756Z,15.40
2023-05-09T00:38:14.603Z,15.40
2023-05-09T00:40:41.459Z,15.30
2023-05-09T00:43:08.248Z,15.30
2023-05-09T00:45:35.266Z,15.30
2023-05-09T00:48:02.141Z,15.30
2023-05-09T00:50:29.138Z,15.30
2023-05-09T00:52:56.483Z,15.20
2023-05-09T00:55:23.545Z,15.20
2023-05-09T00:57:50.393Z,15.20
2023-05-09T01:00:18.347Z,15.20
2023-05-09T01:02:49.179Z,15.10
2023-05-09T01:05:16.722Z,15.20
2023-05-09T01:07:46.814Z,15.10
2023-05-09T01:10:48.432Z,15.10
2023-05-09T01:13:30.640Z,15.10
2023-05-09T01:16:16.439Z,15.10
2023-05-09T01:18:56.208Z,15.10
2023-05-09T01:21:33.408Z,15.00
2023-05-09T01:24:25.768Z,15.00
2023-05-09T01:27:29.146Z,15.00
2023-05-09T01:30:00.531Z,14.90
2023-05-09T01:32:30.518Z,15.00
2023-05-09T01:35:01.421Z,14.90
2023-05-09T01:37:38.895Z,14.90
2023-05-09T01:40:14.430Z,14.90
2023-05-09T01:42:50.500Z,14.90
2023-05-09T01:45:18.450Z,14.90
2023-05-09T01:47:46.584Z,14.80
2023-05-09T01:50:15.160Z,14.90
2023-05-09T01:52:43.975Z,14.90
2023-05-09T01:55:12.287Z,14.90
2023-05-09T01:57:40.156Z,14.90
2023-05-09T02:00:09.065Z,14.90
2023-05-09T02:02:36.756Z,14.90
2023-05-09T02:05:04.386Z,14.80
2023-05-09T02:07:32.240Z,14.80
2023-05-09T02:10:00.629Z,14.80
2023-05-09T02:12:28.511Z,14.80
2023-05-09T02:14:55.359Z,14.80
2023-05-09T02:17:22.341Z,14.80
2023-05-09T02:19:49.340Z,14.70
2023-05-09T02:22:16.349Z,14.70
2023-05-09T02:24:45.466Z,14.70
2023-05-09T02:27:13.060Z,14.70
2023-05-09T02:29:44.366Z,14.60
2023-05-09T02:32:16.754Z,14.60
2023-05-09T02:34:45.385Z,14.60
2023-05-09T02:37:13.904Z,14.60
2023-05-09T02:39:40.848Z,14.60
2023-05-09T02:42:12.048Z,14.60
2023-05-09T02:44:39.119Z,14.60
2023-05-09T02:47:07.534Z,14.60
2023-05-09T02:49:34.774Z,14.60
2023-05-09T02:52:01.698Z,14.60
2023-05-09T02:54:28.881Z,14.60
2023-05-09T02:56:55.715Z,14.60
2023-05-09T02:59:22.595Z,14.60
2023-05-09T03:01:51.962Z,14.60
2023-05-09T03:04:19.743Z,14.60
2023-05-09T03:06:46.710Z,14.60
2023-05-09T03:09:13.525Z,14.60
2023-05-09T03:11:40.697Z,14.50
2023-05-09T03:14:08.541Z,14.60
2023-05-09T03:16:35.683Z,14.60
2023-05-09T03:19:03.439Z,14.60
2023-05-09T03:21:31.973Z,14.50
2023-05-09T03:23:59.040Z,14.50
2023-05-09T03:26:26.540Z,14.60
2023-05-09T03:28:53.458Z,14.50
2023-05-09T03:31:20.341Z,14.50
2023-05-09T03:33:47.247Z,14.50
2023-05-09T03:36:14.642Z,14.50
2023-05-09T03:38:41.454Z,14.50
2023-05-09T03:41:08.336Z,14.50
2023-05-09T03:43:35.166Z,14.50
2023-05-09T03:46:02.082Z,14.50
2023-05-09T03:48:28.851Z,14.50
2023-05-09T03:50:55.714Z,14.50
2023-05-09T03:53:22.599Z,14.50
2023-05-09T03:55:49.379Z,14.50
2023-05-09T03:58:16.297Z,14.50
2023-05-09T04:00:43.156Z,14.50
2023-05-09T04:03:10.101Z,14.50
2023-05-09T04:05:37.323Z,14.50
2023-05-09T04:08:05.027Z,14.50
2023-05-09T04:10:32.721Z,14.50
2023-05-09T04:12:59.618Z,14.50
2023-05-09T04:15:26.860Z,14.50
2023-05-09T04:17:53.821Z,14.60
2023-05-09T04:20:20.679Z,14.50
2023-05-09T04:22:47.443Z,14.50
2023-05-09T04:25:16.993Z,14.50
2023-05-09T04:27:44.034Z,14.50
2023-05-09T04:30:11.982Z,14.50
2023-05-09T04:32:39.141Z,14.50
2023-05-09T04:35:08.279Z,14.50
2023-05-09T04:37:35.163Z,14.50
2023-05-09T04:40:02.357Z,14.50
2023-05-09T04:42:29.191Z,14.50
2023-05-09T04:44:56.249Z,14.60
2023-05-09T04:47:23.118Z,14.50
2023-05-09T04:49:49.991Z,14.60
2023-05-09T04:52:16.777Z,14.60
2023-05-09T04:54:43.788Z,14.60
2023-05-09T04:57:18.038Z,14.60
2023-05-09T04:59:45.848Z,14.60
2023-05-09T05:02:12.946Z,14.60
2023-05-09T05:04:39.907Z,14.60
2023-05-09T05:07:06.808Z,14.70
2023-05-09T05:09:33.614Z,14.70
2023-05-09T05:12:02.987Z,14.70
2023-05-09T05:14:31.287Z,14.80
2023-05-09T05:16:58.107Z,14.80
2023-05-09T05:19:25.039Z,14.80
2023-05-09T05:21:51.833Z,14.80
2023-05-09T05:24:18.624Z,14.90
2023-05-09T05:26:45.569Z,14.90
2023-05-09T05:29:12.569Z,14.90
2023-05-09T05:31:39.414Z,15.00
2023-05-09T05:34:06.412Z,15.00
2023-05-09T05:36:33.588Z,15.10
2023-05-09T05:39:00.430Z,15.10
2023-05-09T05:41:27.594Z,15.10
2023-05-09T05:43:54.643Z,15.10
2023-05-09T05:46:21.683Z,15.00
2023-05-09T05:48:48.587Z,15.00
2023-05-09T05:51:15.453Z,15.00
2023-05-09T05:53:42.813Z,15.00
2023-05-09T05:56:09.771Z,15.00
2023-05-09T05:58:36.638Z,15.00
2023-05-09T06:01:03.594Z,15.00
2023-05-09T06:03:30.846Z,15.00
2023-05-09T06:05:57.985Z,15.10
2023-05-09T06:08:24.874Z,15.10
2023-05-09T06:10:51.788Z,15.00
2023-05-09T06:13:18.759Z,15.10
2023-05-09T06:15:45.768Z,15.00
2023-05-09T06:18:12.961Z,15.10
2023-05-09T06:20:39.916Z,15.10
2023-05-09T06:23:06.767Z,15.10
2023-05-09T06:25:33.560Z,15.10
2023-05-09T06:28:00.705Z,15.10
2023-05-09T06:30:27.620Z,15.10
2023-05-09T06:32:55.321Z,15.10
2023-05-09T06:35:22.466Z,15.10
2023-05-09T06:37:49.556Z,15.20
2023-05-09T06:40:20.056Z,15.10
2023-05-09T06:42:46.947Z,15.10
2023-05-09T06:45:14.645Z,15.20
2023-05-09T06:47:41.702Z,15.20
2023-05-09T06:50:09.080Z,15.20
2023-05-09T06:52:36.078Z,15.20
2023-05-09T06:55:03.619Z,15.30
2023-05-09T06:57:30.739Z,15.20
2023-05-09T06:59:57.509Z,15.20
2023-05-09T07:02:24.612Z,15.30
2023-05-09T07:04:51.547Z,15.30
2023-05-09T07:07:18.384Z,15.30
2023-05-09T07:09:45.252Z,15.40
2023-05-09T07:12:12.081Z,15.40
2023-05-09T07:14:38.974Z,15.40
2023-05-09T07:17:21.881Z,15.40
2023-05-09T07:19:51.154Z,15.50
2023-05-09T07:22:17.995Z,15.50
2023-05-09T07:24:46.465Z,15.50
2023-05-09T07:27:13.428Z,15.40
2023-05-09T07:29:40.307Z,15.50
2023-05-09T07:32:07.266Z,15.50
2023-05-09T07:34:34.217Z,15.50
2023-05-09T07:37:01.143Z,15.50
2023-05-09T07:39:27.970Z,15.50
2023-05-09T07:41:54.842Z,15.60
2023-05-09T07:44:21.953Z,15.50
2023-05-09T07:46:48.914Z,15.60
2023-05-09T07:49:15.727Z,15.60
2023-05-09T07:51:42.582Z,15.60
2023-05-09T07:54:10.233Z,15.60
2023-05-09T07:56:37.219Z,15.70
2023-05-09T07:59:05.104Z,15.80
2023-05-09T08:01:32.026Z,15.80
2023-05-09T08:03:59.006Z,15.90
2023-05-09T08:06:26.412Z,16.00
2023-05-09T08:08:53.214Z,16.00
2023-05-09T08:11:20.109Z,16.00
2023-05-09T08:13:48.142Z,16.10
2023-05-09T08:16:19.682Z,16.10
2023-05-09T08:18:46.750Z,16.20
2023-05-09T08:21:13.569Z,16.40
2023-05-09T08:23:41.303Z,16.50
2023-05-09T08:26:08.181Z,16.60
2023-05-09T08:28:35.026Z,16.80
2023-05-09T08:31:01.934Z,16.90
2023-05-09T08:33:28.858Z,17.00
2023-05-09T08:35:56.447Z,16.90
2023-05-09T08:38:24.405Z,17.00
2023-05-09T08:40:51.500Z,16.90
2023-05-09T08:43:21.314Z,16.90
2023-05-09T08:45:58.108Z,16.90
2023-05-09T08:48:27.026Z,17.00
2023-05-09T08:50:55.713Z,16.90
2023-05-09T08:53:23.234Z,17.00
2023-05-09T08:55:51.205Z,16.90
2023-05-09T08:58:19.926Z,17.00
2023-05-09T09:00:47.779Z,17.00
2023-05-09T09:03:15.307Z,17.00
2023-05-09T09:05:43.150Z,17.10
2023-05-09T09:08:11.943Z,17.10
2023-05-09T09:10:42.132Z,17.00
2023-05-09T09:13:12.591Z,17.00
2023-05-09T09:15:42.340Z,16.90
2023-05-09T09:18:12.199Z,16.90
2023-05-09T09:20:48.021Z,16.80
2023-05-09T09:23:19.769Z,16.80
2023-05-09T09:25:59.497Z,16.80
2023-05-09T09:28:27.291Z,17.00
2023-05-09T09:30:54.310Z,17.10
2023-05-09T09:33:22.693Z,17.20
2023-05-09T09:35:51.045Z,17.20
2023-05-09T09:38:22.469Z,17.30
2023-05-09T09:40:56.785Z,17.30
2023-05-09T09:43:31.215Z,17.50
2023-05-09T09:46:02.576Z,17.50
2023-05-09T09:48:34.406Z,17.50
2023-05-09T09:51:11.517Z,17.60
2023-05-09T09:53:45.081Z,17.50
2023-05-09T09:56:12.036Z,17.50
2023-05-09T09:58:39.137Z,17.40
2023-05-09T10:01:20.834Z,17.50
2023-05-09T10:03:48.160Z,17.60
2023-05-09T10:06:16.517Z,17.70
2023-05-09T10:08:48.855Z,17.70
2023-05-09T10:11:15.816Z,17.70
2023-05-09T10:13:44.639Z,17.70
2023-05-09T10:16:12.840Z,17.70
2023-05-09T10:18:42.528Z,17.70
2023-05-09T10:21:12.091Z,17.90
2023-05-09T10:23:43.042Z,17.90
2023-05-09T10:26:31.909Z,17.90
2023-05-09T10:29:02.654Z,18.00
2023-05-09T10:31:34.409Z,18.20
2023-05-09T10:34:09.963Z,18.30
2023-05-09T10:36:36.930Z,18.40
2023-05-09T10:39:04.142Z,18.70
2023-05-09T10:41:31.406Z,18.80
2023-05-09T10:43:59.221Z,18.90
2023-05-09T10:46:27.600Z,18.90
2023-05-09T10:48:55.131Z,18.90
2023-05-09T15:29:18.236Z,18.10
2023-05-09T15:31:45.047Z,18.00
2023-05-09T15:34:14.800Z,18.00
2023-05-09T15:36:41.789Z,18.00
2023-05-09T15:39:08.642Z,17.90
2023-05-09T15:41:35.429Z,17.80
2023-05-09T15:44:02.284Z,17.70
2023-05-09T15:46:29.818Z,17.70
2023-05-09T15:48:58.429Z,17.60
2023-05-09T15:51:25.492Z,17.50
2023-05-09T15:53:52.353Z,17.50
2023-05-09T15:56:19.181Z,17.40
2023-05-09T15:58:46.137Z,17.40
2023-05-09T16:01:14.487Z,17.30
2023-05-09T16:03:42.022Z,17.30
2023-05-09T16:06:09.141Z,17.30
2023-05-09T16:08:35.957Z,17.30
2023-05-09T16:11:03.361Z,17.10
2023-05-09T16:13:30.308Z,17.10
2023-05-09T16:15:57.333Z,17.00
2023-05-09T16:18:24.238Z,17.00
2023-05-09T16:20:51.384Z,16.90
2023-05-09T16:23:18.242Z,16.80
2023-05-09T16:25:45.372Z,16.80
2023-05-09T16:28:12.320Z,16.70
2023-05-09T16:30:39.231Z,16.70
2023-05-09T16:33:06.198Z,16.70
2023-05-09T16:35:33.921Z,16.70
2023-05-09T16:38:00.776Z,16.70
2023-05-09T16:40:28.518Z,16.60
2023-05-09T16:42:55.437Z,16.60
2023-05-09T16:45:22.420Z,16.60
2023-05-09T16:47:51.550Z,16.60
2023-05-09T16:50:18.517Z,16.60
2023-05-09T16:52:45.389Z,16.60
2023-05-09T16:55:12.395Z,16.60
2023-05-09T16:57:39.235Z,16.60
2023-05-09T17:00:08.067Z,16.60
2023-05-09T17:02:36.293Z,16.70
2023-05-09T17:05:04.511Z,16.50
2023-05-09T17:07:32.238Z,16.50
2023-05-09T17:09:59.258Z,16.50
2023-05-09T17:12:27.613Z,16.50
2023-05-09T17:14:54.813Z,16.50
2023-05-09T17:17:21.671Z,16.50
2023-05-09T17:19:48.631Z,16.50
2023-05-09T17:22:15.773Z,16.50
2023-05-09T17:24:42.626Z,16.50
2023-05-09T17:27:10.828Z,16.50
2023-05-09T17:29:37.979Z,16.60
2023-05-09T17:32:05.245Z,16.50
2023-05-09T17:34:32.377Z,16.60
2023-05-09T17:37:02.043Z,16.50
2023-05-09T17:39:29.149Z,16.50
2023-05-09T17:41:56.029Z,16.50
2023-05-09T17:44:23.145Z,16.50
2023-05-09T17:46:50.558Z,16.40
2023-05-09T17:49:17.540Z,16.40
2023-05-09T17:51:44.637Z,16.40
2023-05-09T17:54:12.841Z,16.30
2023-05-09T17:56:39.941Z,16.20
2023-05-09T17:59:08.408Z,16.20
2023-05-09T18:01:35.625Z,16.10
2023-05-09T18:04:02.882Z,16.10
2023-05-09T18:06:30.889Z,16.00
2023-05-09T18:08:57.751Z,16.00
2023-05-09T18:11:25.042Z,15.90
2023-05-09T18:13:51.886Z,15.90
2023-05-09T18:16:19.004Z,15.80
2023-05-09T18:18:45.945Z,15.80
2023-05-09T18:21:12.929Z,15.80
2023-05-09T18:23:40.484Z,15.70
2023-05-09T18:26:08.123Z,15.70
2023-05-09T18:28:40.793Z,15.70
2023-05-09T18:31:12.957Z,15.70
2023-05-09T18:33:40.029Z,15.70
2023-05-09T18:36:11.302Z,15.70
2023-05-09T18:38:39.026Z,15.70
2023-05-09T18:41:07.810Z,15.60
2023-05-09T18:43:38.239Z,15.60
2023-05-09T18:46:05.748Z,15.60
2023-05-09T18:48:35.712Z,15.60
2023-05-09T18:51:02.527Z,15.60
2023-05-09T18:53:29.436Z,15.60
2023-05-09T18:55:56.873Z,15.60
2023-05-09T18:58:24.842Z,15.50
2023-05-09T19:00:53.034Z,15.50
2023-05-09T19:03:20.796Z,15.50
2023-05-09T19:05:47.715Z,15.40
2023-05-09T19:08:14.867Z,15.40
2023-05-09T19:10:42.514Z,15.40
2023-05-09T19:13:09.722Z,15.40
2023-05-09T19:15:36.674Z,15.40
2023-05-09T19:18:03.903Z,15.30
2023-05-09T19:20:31.378Z,15.20
2023-05-09T19:22:59.064Z,15.20
2023-05-09T19:25:26.785Z,15.20
2023-05-09T19:27:53.764Z,15.20
2023-05-09T19:30:20.911Z,15.20
2023-05-09T19:32:48.507Z,15.10
2023-05-09T19:35:16.284Z,15.10
2023-05-09T19:37:43.109Z,15.10
2023-05-09T19:40:11.309Z,15.00
2023-05-09T19:42:39.813Z,15.00
2023-05-09T19:45:07.061Z,15.00
2023-05-09T19:47:33.924Z,15.00
2023-05-09T19:50:02.096Z,14.90
2023-05-09T19:52:29.988Z,14.90
2023-05-09T19:54:57.008Z,14.90
2023-05-09T19:57:23.871Z,14.90
2023-05-09T19:59:52.029Z,14.90
2023-05-09T20:02:19.025Z,14.90
2023-05-09T20:04:49.734Z,14.90
2023-05-09T20:07:17.775Z,14.80
2023-05-09T20:09:44.619Z,14.80
2023-05-09T20:12:12.588Z,14.80
2023-05-09T20:14:39.469Z,14.80
2023-05-09T20:17:06.570Z,14.80
2023-05-09T20:19:33.366Z,14.80
2023-05-09T20:22:01.740Z,14.70
2023-05-09T20:24:31.251Z,14.70
2023-05-09T20:26:58.136Z,14.70
2023-05-09T20:29:26.123Z,14.70
2023-05-09T20:31:53.263Z,14.60
2023-05-09T20:34:21.416Z,14.70
2023-05-09T20:36:52.231Z,14.60
2023-05-09T20:39:20.200Z,14.70
2023-05-09T20:41:48.064Z,14.60
2023-05-09T20:44:16.346Z,14.60
2023-05-09T20:46:43.727Z,14.60
2023-05-09T20:49:11.196Z,14.60
2023-05-09T20:51:38.961Z,14.60
2023-05-09T20:54:06.518Z,14.60
2023-05-09T20:56:35.407Z,14.60
2023-05-09T20:59:04.089Z,14.60
2023-05-09T21:01:32.518Z,14.60
2023-05-09T21:03:59.643Z,14.60
2023-05-09T21:06:26.564Z,14.60
2023-05-09T21:08:53.651Z,14.60
